createdAt,value
2022-11-01T00:02:18.697Z,1.00
2022-11-01T00:04:46.750Z,2.80
2022-11-01T00:07:14.393Z,1.40
2022-11-01T00:09:42.101Z,3.00
2022-11-01T00:12:09.662Z,2.80
2022-11-01T00:14:37.538Z,2.00
2022-11-01T00:17:05.266Z,1.40
2022-11-01T00:19:32.941Z,3.00
2022-11-01T00:22:00.700Z,1.80
2022-11-01T00:24:31.464Z,2.60
2022-11-01T00:27:00.375Z,2.00
2022-11-01T00:29:28.018Z,2.20
2022-11-01T00:31:55.721Z,3.00
2022-11-01T00:34:23.474Z,2.80
2022-11-01T00:36:51.143Z,1.60
2022-11-01T00:39:18.789Z,1.60
2022-11-01T00:41:46.381Z,2.60
2022-11-01T00:44:14.293Z,2.80
2022-11-01T00:46:42.290Z,3.00
2022-11-01T00:49:10.027Z,3.00
2022-11-01T00:51:37.772Z,2.80
2022-11-01T00:54:05.672Z,2.00
2022-11-01T00:56:33.358Z,2.80
2022-11-01T00:59:01.112Z,2.00
2022-11-01T01:01:29.039Z,2.00
2022-11-01T01:03:56.875Z,1.40
2022-11-01T01:06:24.698Z,2.00
2022-11-01T01:08:52.269Z,3.00
2022-11-01T01:11:19.852Z,1.40
2022-11-01T01:13:47.659Z,2.00
2022-11-01T01:16:15.489Z,0.60
2022-11-01T01:18:43.299Z,2.00
2022-11-01T01:21:11.268Z,2.00
2022-11-01T01:23:39.158Z,2.00
2022-11-01T01:26:09.069Z,2.00
2022-11-01T01:28:41.795Z,2.00
2022-11-01T01:31:13.390Z,2.00
2022-11-01T01:33:41.161Z,1.20
2022-11-01T01:36:08.921Z,2.00
2022-11-01T01:38:36.631Z,2.00
2022-11-01T01:41:22.730Z,2.00
2022-11-01T01:43:50.944Z,3.60
2022-11-01T01:46:18.781Z,2.00
2022-11-01T01:48:50.878Z,2.00
2022-11-01T01:51:22.107Z,1.00
2022-11-01T01:53:53.877Z,2.00
2022-11-01T01:56:30.840Z,2.00
2022-11-01T01:59:09.748Z,2.00
2022-11-01T02:01:40.739Z,1.00
2022-11-01T02:04:24.689Z,2.00
2022-11-01T02:06:52.605Z,2.00
2022-11-01T02:09:21.046Z,3.00
2022-11-01T02:11:48.991Z,0.60
2022-11-01T02:14:18.100Z,1.00
2022-11-01T02:17:19.059Z,2.00
2022-11-01T02:20:11.463Z,0.40
2022-11-01T02:23:16.623Z,2.00
2022-11-01T02:26:31.541Z,2.00
2022-11-01T02:29:25.183Z,1.80
2022-11-01T02:32:19.308Z,0.20
2022-11-01T02:34:59.111Z,1.80
2022-11-01T02:37:34.981Z,2.00
2022-11-01T02:40:17.143Z,1.60
2022-11-01T02:42:50.950Z,1.00
2022-11-01T02:45:37.340Z,2.00
2022-11-01T02:48:07.002Z,1.60
2022-11-01T02:50:44.580Z,2.00
2022-11-01T02:53:13.542Z,2.00
2022-11-01T02:55:41.312Z,2.00
2022-11-01T02:58:18.021Z,1.00
2022-11-01T03:00:46.312Z,2.00
2022-11-01T03:03:34.554Z,2.00
2022-11-01T03:06:05.203Z,1.00
2022-11-01T03:08:35.709Z,1.80
2022-11-01T03:11:33.585Z,2.00
2022-11-01T03:14:24.357Z,2.20
2022-11-01T03:17:00.742Z,2.80
2022-11-01T03:19:58.497Z,1.40
2022-11-01T03:22:57.578Z,0.00
2022-11-01T03:25:44.789Z,1.00
2022-11-01T03:28:27.850Z,2.80
2022-11-01T03:31:02.727Z,2.40
2022-11-01T03:33:34.205Z,1.80
2022-11-01T03:36:10.402Z,1.20
2022-11-01T03:38:45.343Z,2.40
2022-11-01T03:41:16.010Z,2.60
2022-11-01T03:43:43.687Z,2.40
2022-11-01T03:46:11.052Z,1.00
2022-11-01T03:48:42.033Z,2.00
2022-11-01T03:51:09.779Z,1.40
2022-11-01T03:53:37.262Z,2.60
2022-11-01T03:56:05.009Z,2.00
2022-11-01T03:58:45.459Z,2.00
2022-11-01T04:01:15.978Z,0.00
2022-11-01T04:03:44.332Z,2.00
2022-11-01T04:06:12.069Z,2.40
2022-11-01T04:08:40.092Z,0.00
2022-11-01T04:11:07.824Z,3.00
2022-11-01T04:13:35.444Z,3.00
2022-11-01T04:16:21.442Z,3.00
2022-11-01T04:19:07.281Z,2.00
2022-11-01T04:21:35.403Z,1.00
2022-11-01T04:24:02.990Z,4.00
2022-11-01T04:26:30.746Z,2.00
2022-11-01T04:28:58.180Z,3.00
2022-11-01T04:31:36.065Z,2.20
2022-11-01T04:34:05.266Z,1.00
2022-11-01T04:36:32.828Z,2.00
2022-11-01T04:39:00.342Z,2.20
2022-11-01T04:41:29.510Z,2.00
2022-11-01T04:44:00.200Z,2.00
2022-11-01T04:46:32.086Z,2.00
2022-11-01T04:48:59.635Z,2.00
2022-11-01T04:51:27.343Z,2.00
2022-11-01T04:53:54.982Z,2.20
2022-11-01T04:56:22.322Z,1.00
2022-11-01T04:58:49.909Z,2.00
2022-11-01T05:01:17.683Z,2.00
2022-11-01T05:03:45.555Z,2.00
2022-11-01T05:06:13.130Z,2.40
2022-11-01T05:08:40.845Z,2.40
2022-11-01T05:11:08.542Z,2.00
2022-11-01T05:13:36.598Z,2.20
2022-11-01T05:16:21.261Z,2.00
2022-11-01T05:18:49.725Z,1.00
2022-11-01T05:21:17.229Z,2.20
2022-11-01T05:23:44.913Z,1.00
2022-11-01T05:26:12.515Z,3.00
2022-11-01T05:28:40.180Z,2.00
2022-11-01T05:31:07.880Z,5.00
2022-11-01T05:33:35.465Z,5.00
2022-11-01T05:36:03.624Z,3.40
2022-11-01T05:38:31.339Z,2.00
2022-11-01T05:40:58.817Z,2.00
2022-11-01T05:43:26.640Z,3.00
2022-11-01T05:45:54.441Z,2.00
2022-11-01T05:48:22.312Z,2.00
2022-11-01T05:50:50.079Z,1.00
2022-11-01T05:53:17.762Z,1.60
2022-11-01T05:55:45.400Z,2.00
2022-11-01T05:58:13.242Z,1.00
2022-11-01T06:00:40.763Z,2.00
2022-11-01T06:03:08.466Z,2.20
2022-11-01T06:05:38.639Z,2.00
2022-11-01T06:08:07.182Z,1.40
2022-11-01T06:10:35.146Z,2.20
2022-11-01T06:13:02.944Z,3.40
2022-11-01T06:15:33.161Z,5.40
2022-11-01T06:18:03.704Z,3.40
2022-11-01T06:20:32.900Z,2.00
2022-11-01T06:23:00.517Z,0.60
2022-11-01T06:25:28.484Z,2.00
2022-11-01T06:27:56.131Z,2.60
2022-11-01T06:30:23.557Z,1.00
2022-11-01T06:32:51.343Z,2.00
2022-11-01T06:35:18.815Z,2.00
2022-11-01T06:37:47.108Z,2.00
2022-11-01T06:40:14.439Z,0.00
2022-11-01T06:42:46.358Z,1.00
2022-11-01T06:45:14.587Z,3.00
2022-11-01T06:47:47.084Z,2.00
2022-11-01T06:50:14.630Z,2.40
2022-11-01T06:52:42.126Z,1.80
2022-11-01T06:55:09.945Z,2.20
2022-11-01T06:57:39.753Z,2.00
2022-11-01T07:00:09.633Z,2.00
2022-11-01T07:02:37.267Z,2.00
2022-11-01T07:05:05.057Z,2.40
2022-11-01T07:07:32.698Z,2.00
2022-11-01T07:10:00.423Z,2.00
2022-11-01T07:12:28.642Z,2.40
2022-11-01T07:14:56.202Z,2.00
2022-11-01T07:17:23.720Z,0.60
2022-11-01T07:19:51.823Z,4.00
2022-11-01T07:22:19.604Z,2.00
2022-11-01T07:24:47.169Z,2.40
2022-11-01T07:27:19.440Z,1.40
2022-11-01T07:29:48.317Z,2.80
2022-11-01T07:32:16.081Z,2.00
2022-11-01T07:34:44.403Z,3.00
2022-11-01T07:37:11.878Z,3.00
2022-11-01T07:39:39.448Z,2.00
2022-11-01T07:42:06.857Z,3.75
2022-11-01T07:44:34.354Z,4.00
2022-11-01T07:47:02.197Z,3.00
2022-11-01T07:49:29.772Z,3.00
2022-11-01T07:52:01.797Z,3.00
2022-11-01T07:54:30.625Z,3.25
2022-11-01T07:56:58.363Z,2.00
2022-11-01T07:59:25.823Z,3.75
2022-11-01T08:01:53.342Z,3.00
2022-11-01T08:04:20.961Z,3.00
2022-11-01T08:06:51.252Z,2.25
2022-11-01T08:09:22.366Z,2.00
2022-11-01T08:11:50.243Z,4.25
2022-11-01T08:14:17.758Z,3.00
2022-11-01T08:16:48.443Z,2.00
2022-11-01T08:19:15.788Z,0.75
2022-11-01T08:21:43.131Z,1.00
2022-11-01T08:24:10.726Z,2.00
2022-11-01T08:26:38.043Z,2.75
2022-11-01T08:29:05.349Z,4.00
2022-11-01T08:31:33.118Z,1.50
2022-11-01T08:34:00.563Z,3.50
2022-11-01T08:36:28.202Z,2.00
2022-11-01T08:38:55.736Z,3.25
2022-11-01T08:41:23.956Z,2.00
2022-11-01T08:43:51.446Z,0.00
2022-11-01T08:46:19.260Z,2.00
2022-11-01T08:48:52.679Z,2.00
2022-11-01T08:51:26.207Z,3.00
2022-11-01T08:53:57.544Z,2.25
2022-11-01T08:56:32.444Z,2.00
2022-11-01T08:59:00.237Z,1.50
2022-11-01T09:01:28.594Z,3.00
2022-11-01T09:04:01.476Z,3.00
2022-11-01T09:06:36.365Z,1.00
2022-11-01T09:09:05.741Z,3.00
2022-11-01T09:11:33.324Z,2.25
2022-11-01T09:14:01.611Z,3.00
2022-11-01T09:16:29.962Z,0.00
2022-11-01T09:19:01.911Z,3.00
2022-11-01T09:21:31.823Z,2.50
2022-11-01T09:24:00.089Z,2.25
2022-11-01T09:26:27.567Z,2.00
2022-11-01T09:28:58.760Z,3.00
2022-11-01T09:31:26.648Z,2.75
2022-11-01T09:33:58.300Z,3.00
2022-11-01T09:36:26.402Z,3.50
2022-11-01T09:38:54.748Z,3.00
2022-11-01T09:41:35.447Z,4.00
2022-11-01T09:44:05.820Z,2.00
2022-11-01T09:46:44.932Z,3.75
2022-11-01T09:49:20.720Z,2.75
2022-11-01T09:51:48.376Z,2.25
2022-11-01T09:54:19.118Z,2.00
2022-11-01T09:57:37.049Z,2.25
2022-11-01T10:00:20.727Z,3.00
2022-11-01T10:03:03.426Z,2.00
2022-11-01T10:05:46.557Z,2.75
2022-11-01T10:08:32.124Z,3.00
2022-11-01T10:11:39.947Z,2.50
2022-11-01T10:14:48.167Z,3.00
2022-11-01T10:17:16.752Z,1.75
2022-11-01T10:19:50.520Z,3.50
2022-11-01T10:22:28.114Z,2.00
2022-11-01T10:24:59.473Z,1.25
2022-11-01T10:27:48.020Z,4.00
2022-11-01T10:30:17.689Z,4.00
2022-11-01T10:32:51.471Z,2.25
2022-11-01T10:35:27.915Z,4.50
2022-11-01T10:38:41.525Z,4.00
2022-11-01T10:41:41.282Z,0.50
2022-11-01T10:44:20.430Z,5.00
2022-11-01T10:46:50.082Z,4.00
2022-11-01T10:50:00.218Z,3.75
2022-11-01T10:52:35.750Z,2.50
2022-11-01T10:55:05.540Z,4.00
2022-11-01T10:57:44.027Z,3.75
2022-11-01T11:00:17.925Z,1.50
2022-11-01T11:03:13.887Z,3.00
2022-11-01T11:05:41.661Z,3.00
2022-11-01T11:08:16.655Z,0.75
2022-11-01T11:10:45.969Z,3.00
2022-11-01T11:13:17.322Z,3.00
2022-11-01T11:15:47.995Z,2.25
2022-11-01T11:18:42.575Z,1.00
2022-11-01T11:21:13.723Z,2.00
2022-11-01T11:23:45.295Z,3.50
2022-11-01T11:26:19.432Z,3.00
2022-11-01T11:28:54.816Z,2.00
2022-11-01T11:31:34.211Z,2.00
2022-11-01T11:34:13.780Z,3.00
2022-11-01T11:36:47.075Z,2.75
2022-11-01T11:39:38.914Z,2.00
2022-11-01T11:42:15.589Z,3.00
2022-11-01T11:44:50.625Z,2.75
2022-11-01T11:47:28.411Z,3.00
2022-11-01T11:49:58.576Z,2.00
2022-11-01T11:52:38.583Z,1.25
2022-11-01T11:55:26.259Z,2.00
2022-11-01T11:57:56.247Z,2.00
2022-11-01T12:00:27.407Z,3.00
2022-11-01T12:02:55.129Z,2.00
2022-11-01T12:05:24.200Z,3.00
2022-11-01T12:07:54.376Z,2.50
2022-11-01T12:10:39.409Z,2.00
2022-11-01T12:13:35.090Z,2.00
2022-11-01T12:16:21.284Z,2.50
2022-11-01T12:18:55.320Z,2.75
2022-11-01T12:21:43.330Z,1.00
2022-11-01T12:24:43.409Z,1.50
2022-11-01T12:27:25.296Z,2.00
2022-11-01T12:30:01.565Z,2.25
2022-11-01T12:32:39.851Z,2.00
2022-11-01T12:35:31.888Z,2.00
2022-11-01T12:38:20.322Z,3.00
2022-11-01T12:40:52.725Z,2.50
2022-11-01T12:43:30.129Z,2.00
2022-11-01T12:46:03.364Z,2.00
2022-11-01T12:48:33.856Z,0.25
2022-11-01T12:51:05.570Z,3.00
2022-11-01T12:53:37.998Z,2.50
2022-11-01T12:56:06.034Z,5.00
2022-11-01T12:58:36.241Z,3.00
2022-11-01T13:01:09.894Z,4.50
2022-11-01T13:03:57.236Z,2.50
2022-11-01T13:06:48.084Z,2.00
2022-11-01T13:09:45.882Z,2.00
2022-11-01T13:12:28.145Z,1.00
2022-11-01T13:15:40.824Z,3.00
2022-11-01T13:18:33.721Z,2.00
2022-11-01T13:21:39.244Z,3.00
2022-11-01T13:24:25.233Z,3.20
2022-11-01T13:27:00.760Z,2.00
2022-11-01T13:29:53.838Z,3.25
2022-11-01T13:32:22.098Z,4.00
2022-11-01T13:35:16.318Z,3.25
2022-11-01T13:37:54.041Z,2.25
2022-11-01T13:40:24.722Z,5.00
2022-11-01T13:43:02.664Z,3.00
2022-11-01T13:46:11.722Z,4.20
2022-11-01T13:48:54.954Z,3.00
2022-11-01T13:51:28.413Z,2.80
2022-11-01T13:54:15.149Z,4.00
2022-11-01T13:57:13.347Z,6.00
2022-11-01T13:59:45.026Z,3.00
2022-11-01T14:02:28.081Z,2.60
2022-11-01T14:05:11.438Z,2.60
2022-11-01T14:07:43.196Z,4.60
2022-11-01T14:10:12.361Z,4.00
2022-11-01T14:12:48.187Z,4.00
2022-11-01T14:15:21.261Z,3.00
2022-11-01T14:18:11.720Z,4.00
2022-11-01T14:20:40.484Z,4.00
2022-11-01T14:23:29.774Z,4.00
2022-11-01T14:26:26.067Z,2.00
2022-11-01T14:28:57.163Z,3.00
2022-11-01T14:31:28.624Z,3.40
2022-11-01T14:34:00.134Z,3.20
2022-11-01T14:36:34.318Z,4.20
2022-11-01T14:39:03.947Z,5.80
2022-11-01T14:41:37.087Z,5.60
2022-11-01T14:44:14.616Z,0.00
2022-11-01T14:46:46.367Z,5.20
2022-11-01T14:49:29.978Z,5.20
2022-11-01T14:52:08.723Z,9.80
2022-11-01T14:55:04.169Z,8.00
2022-11-01T14:57:34.404Z,8.80
2022-11-01T15:00:28.883Z,6.80
2022-11-01T15:03:02.848Z,8.60
2022-11-01T15:05:30.691Z,5.40
2022-11-01T15:08:02.260Z,5.60
2022-11-01T15:10:41.862Z,5.00
2022-11-01T15:13:15.852Z,6.00
2022-11-01T15:15:43.673Z,2.00
2022-11-01T15:18:17.452Z,6.00
2022-11-01T15:20:55.129Z,5.40
2022-11-01T15:23:35.003Z,7.60
2022-11-01T15:26:13.422Z,8.40
2022-11-01T15:28:54.244Z,8.00
2022-11-01T15:31:22.283Z,6.00
2022-11-01T15:34:01.892Z,5.20
2022-11-01T15:36:37.548Z,6.00
2022-11-01T15:39:29.500Z,5.00
2022-11-01T15:41:58.135Z,4.60
2022-11-01T15:44:28.483Z,4.40
2022-11-01T15:47:00.997Z,7.80
2022-11-01T15:49:36.781Z,7.40
2022-11-01T15:52:21.102Z,8.20
2022-11-01T15:54:55.795Z,6.00
2022-11-01T15:57:29.103Z,8.00
2022-11-01T16:00:07.295Z,6.00
2022-11-01T16:03:00.760Z,8.00
2022-11-01T16:05:35.204Z,8.20
2022-11-01T16:08:06.367Z,7.20
2022-11-01T16:10:33.935Z,8.80
2022-11-01T16:13:03.759Z,8.00
2022-11-01T16:15:33.427Z,6.00
2022-11-01T16:18:14.201Z,6.40
2022-11-01T16:20:41.648Z,8.00
2022-11-01T16:23:24.199Z,7.40
2022-11-01T16:26:05.423Z,6.00
2022-11-01T16:28:40.050Z,8.00
2022-11-01T16:31:29.083Z,4.80
2022-11-01T16:33:57.549Z,8.00
2022-11-01T16:36:31.068Z,8.80
2022-11-01T16:38:58.772Z,8.40
2022-11-01T16:41:39.677Z,6.00
2022-11-01T16:44:17.790Z,7.00
2022-11-01T16:46:45.532Z,5.00
2022-11-01T16:49:20.168Z,6.00
2022-11-01T16:51:48.162Z,5.00
2022-11-01T16:54:15.474Z,0.00
2022-11-01T16:56:48.470Z,6.60
2022-11-01T16:59:27.943Z,5.60
2022-11-01T17:01:58.837Z,3.20
2022-11-01T17:04:27.937Z,8.20
2022-11-01T17:06:58.390Z,9.00
2022-11-01T17:09:32.781Z,7.80
2022-11-01T17:12:00.242Z,4.40
2022-11-01T17:14:27.627Z,4.00
2022-11-01T17:16:56.556Z,10.00
2022-11-01T17:19:26.814Z,6.00
2022-11-01T17:21:55.328Z,6.40
2022-11-01T17:24:27.497Z,7.80
2022-11-01T17:26:59.443Z,9.40
2022-11-01T17:29:26.930Z,11.40
2022-11-01T17:31:54.258Z,6.40
2022-11-01T17:34:21.775Z,7.00
2022-11-01T17:36:50.547Z,5.60
2022-11-01T17:39:18.225Z,5.60
2022-11-01T17:41:45.927Z,6.80
2022-11-01T17:44:13.357Z,7.00
2022-11-01T17:46:43.049Z,8.80
2022-11-01T17:49:16.907Z,9.00
2022-11-01T17:51:44.544Z,6.60
2022-11-01T17:54:12.001Z,5.00
2022-11-01T17:56:39.472Z,6.40
2022-11-01T17:59:07.356Z,6.80
2022-11-01T18:01:35.268Z,9.60
2022-11-01T18:04:03.405Z,5.60
2022-11-01T18:06:31.085Z,7.80
2022-11-01T18:08:59.004Z,6.40
2022-11-01T18:11:47.233Z,9.40
2022-11-01T18:14:47.160Z,1.60
2022-11-01T18:17:25.583Z,9.00
2022-11-01T18:20:30.192Z,11.40
2022-11-01T18:23:08.993Z,11.60
2022-11-01T18:25:47.457Z,27.00
2022-11-01T18:28:19.685Z,18.60
2022-11-01T18:30:54.754Z,20.40
2022-11-01T18:33:28.330Z,13.20
2022-11-01T18:36:14.781Z,12.20
2022-11-01T18:39:04.080Z,4.00
2022-11-01T18:41:31.535Z,11.00
2022-11-01T18:44:00.225Z,9.60
2022-11-01T18:46:38.798Z,8.00
2022-11-01T18:49:10.736Z,11.00
2022-11-01T18:51:39.483Z,8.00
2022-11-01T18:54:14.538Z,9.20
2022-11-01T18:56:48.542Z,11.00
2022-11-01T18:59:24.869Z,8.20
2022-11-01T19:01:59.200Z,8.40
2022-11-01T19:04:35.799Z,6.00
2022-11-01T19:07:39.405Z,9.00
2022-11-01T19:10:21.292Z,7.20
2022-11-01T19:12:55.597Z,8.40
2022-11-01T19:15:25.811Z,8.80
2022-11-01T19:17:58.557Z,7.60
2022-11-01T19:20:40.445Z,8.60
2022-11-01T19:23:16.311Z,8.80
2022-11-01T19:25:43.979Z,10.00
2022-11-01T19:28:33.506Z,8.60
2022-11-01T19:31:18.667Z,10.80
2022-11-01T19:33:48.408Z,9.00
2022-11-01T19:36:19.594Z,3.00
2022-11-01T19:38:48.283Z,10.40
2022-11-01T19:41:29.327Z,10.00
2022-11-01T19:44:12.817Z,7.20
2022-11-01T19:46:40.102Z,11.80
2022-11-01T19:49:26.430Z,16.00
2022-11-01T19:52:21.278Z,9.40
2022-11-01T19:54:52.475Z,8.40
2022-11-01T19:57:31.670Z,10.00
2022-11-01T20:00:16.660Z,11.00
2022-11-01T20:02:44.427Z,1.20
2022-11-01T20:05:29.247Z,8.60
2022-11-01T20:08:18.454Z,8.00
2022-11-01T20:10:45.735Z,3.00
2022-11-01T20:13:13.439Z,11.00
2022-11-01T20:15:40.917Z,9.00
2022-11-01T20:18:08.664Z,7.20
2022-11-01T20:20:36.373Z,9.20
2022-11-01T20:23:25.419Z,6.40
2022-11-01T20:25:51.188Z,8.80
2022-11-01T20:28:18.584Z,7.60
2022-11-01T20:30:45.963Z,7.00
2022-11-01T20:33:13.602Z,8.00
2022-11-01T20:35:41.253Z,9.00
2022-11-01T20:38:09.273Z,11.40
2022-11-01T20:40:36.638Z,4.00
2022-11-01T20:43:04.993Z,6.80
2022-11-01T20:45:34.787Z,11.00
2022-11-01T20:48:03.202Z,10.00
2022-11-01T20:50:30.567Z,10.20
2022-11-01T20:52:57.803Z,10.80
2022-11-01T20:55:25.344Z,7.80
2022-11-01T20:57:52.750Z,9.20
2022-11-01T21:00:20.646Z,4.80
2022-11-01T21:02:52.509Z,7.80
2022-11-01T21:05:25.982Z,7.00
2022-11-01T21:07:58.702Z,8.60
2022-11-01T21:10:27.819Z,8.00
2022-11-01T21:12:55.681Z,8.20
2022-11-01T21:15:31.983Z,8.40
2022-11-01T21:18:08.503Z,6.60
2022-11-01T21:20:46.883Z,2.00
2022-11-01T21:23:35.837Z,5.80
2022-11-01T21:26:16.404Z,6.20
2022-11-01T21:28:48.659Z,7.00
2022-11-01T21:31:16.180Z,5.00
2022-11-01T21:33:52.171Z,6.20
2022-11-01T21:36:19.728Z,7.00
2022-11-01T21:39:18.442Z,7.60
2022-11-01T21:41:48.575Z,7.00
2022-11-01T21:44:21.799Z,6.80
2022-11-01T21:46:55.544Z,4.20
2022-11-01T21:49:31.707Z,5.20
2022-11-01T21:52:08.000Z,5.20
2022-11-01T21:54:37.882Z,5.20
2022-11-01T21:57:07.703Z,6.20
2022-11-01T21:59:36.004Z,5.60
2022-11-01T22:02:04.477Z,5.00
2022-11-01T22:04:32.795Z,4.80
2022-11-01T22:07:03.563Z,5.20
2022-11-01T22:09:32.284Z,3.00
2022-11-01T22:12:00.054Z,3.80
2022-11-01T22:14:28.004Z,6.20
2022-11-01T22:16:57.085Z,5.40
2022-11-01T22:19:24.970Z,6.00
2022-11-01T22:21:52.658Z,6.20
2022-11-01T22:24:20.254Z,3.00
2022-11-01T22:26:48.136Z,5.20
2022-11-01T22:29:15.764Z,6.40
2022-11-01T22:31:43.551Z,5.80
2022-11-01T22:34:11.318Z,8.00
2022-11-01T22:36:41.924Z,0.00
2022-11-01T22:39:30.324Z,4.00
2022-11-01T22:41:57.760Z,5.00
2022-11-01T22:44:27.962Z,4.80
2022-11-01T22:47:01.440Z,6.20
2022-11-01T22:49:32.637Z,3.20
2022-11-01T22:52:20.689Z,3.00
2022-11-01T22:54:50.734Z,3.60
2022-11-01T22:57:22.965Z,5.20
2022-11-01T23:00:01.579Z,6.00
2022-11-01T23:02:34.729Z,2.60
2022-11-01T23:05:22.606Z,7.00
2022-11-01T23:07:55.330Z,4.00
2022-11-01T23:10:29.043Z,4.40
2022-11-01T23:13:25.922Z,5.80
2022-11-01T23:16:02.790Z,4.80
2022-11-01T23:18:34.564Z,5.20
2022-11-01T23:21:11.220Z,7.40
2022-11-01T23:23:43.961Z,5.00
2022-11-01T23:26:13.049Z,4.40
2022-11-01T23:28:42.872Z,5.20
2022-11-01T23:31:11.222Z,5.80
2022-11-01T23:33:43.466Z,6.00
2022-11-01T23:36:18.359Z,7.60
2022-11-01T23:38:51.030Z,8.00
2022-11-01T23:41:38.831Z,4.40
2022-11-01T23:44:39.151Z,6.60
2022-11-01T23:47:15.895Z,3.00
2022-11-01T23:49:45.698Z,5.40
2022-11-01T23:52:52.788Z,4.00
2022-11-01T23:55:27.982Z,7.60
2022-11-01T23:57:58.619Z,3.60
